createdAt,value
2023-02-17T00:01:16.799Z,27.13
2023-02-17T00:03:48.194Z,28.80
2023-02-17T00:06:17.702Z,27.27
2023-02-17T00:08:46.747Z,27.08
2023-02-17T00:11:15.460Z,26.80
2023-02-17T00:13:44.137Z,26.42
2023-02-17T00:16:14.723Z,26.40
2023-02-17T00:18:42.858Z,26.67
2023-02-17T00:21:17.370Z,26.48
2023-02-17T00:23:46.577Z,28.80
2023-02-17T00:26:14.592Z,30.48
2023-02-17T00:28:44.954Z,25.90
2023-02-17T00:31:16.408Z,29.25
2023-02-17T00:33:44.418Z,28.10
2023-02-17T00:36:13.892Z,28.80
2023-02-17T00:38:46.710Z,26.75
2023-02-17T00:41:16.320Z,24.42
2023-02-17T00:43:44.298Z,24.48
2023-02-17T00:46:12.474Z,26.10
2023-02-17T00:48:40.383Z,27.58
2023-02-17T00:51:08.350Z,22.98
2023-02-17T00:53:36.601Z,25.55
2023-02-17T00:56:06.860Z,24.40
2023-02-17T00:58:34.945Z,22.73
2023-02-17T01:01:02.929Z,19.73
2023-02-17T01:03:34.749Z,23.70
2023-02-17T01:06:08.677Z,20.55
2023-02-17T01:08:36.779Z,21.73
2023-02-17T01:11:07.297Z,23.15
2023-02-17T01:13:35.193Z,22.77
2023-02-17T01:16:03.167Z,22.15
2023-02-17T01:18:31.126Z,26.83
2023-02-17T01:20:59.204Z,22.63
2023-02-17T01:23:27.000Z,23.23
2023-02-17T01:25:57.199Z,22.85
2023-02-17T01:28:26.490Z,27.73
2023-02-17T01:30:57.092Z,25.70
2023-02-17T01:33:24.967Z,33.05
2023-02-17T01:35:52.866Z,33.25
2023-02-17T01:38:20.706Z,28.75
2023-02-17T01:40:51.143Z,28.77
2023-02-17T01:43:22.216Z,28.77
2023-02-17T01:45:54.465Z,29.15
2023-02-17T01:48:24.025Z,31.17
2023-02-17T01:50:56.365Z,33.65
2023-02-17T01:53:29.738Z,32.83
2023-02-17T01:55:58.084Z,33.33
2023-02-17T01:58:26.640Z,32.45
2023-02-17T02:00:59.703Z,33.78
2023-02-17T02:03:29.323Z,33.25
2023-02-17T02:05:57.494Z,35.47
2023-02-17T02:08:29.589Z,33.60
2023-02-17T02:10:57.456Z,36.83
2023-02-17T02:13:25.297Z,34.70
2023-02-17T02:15:59.183Z,37.20
2023-02-17T02:18:39.063Z,35.00
2023-02-17T02:21:52.807Z,38.67
2023-02-17T02:24:27.315Z,36.63
2023-02-17T02:27:31.264Z,34.00
2023-02-17T02:30:37.582Z,35.78
2023-02-17T02:33:10.757Z,35.35
2023-02-17T02:35:47.013Z,39.83
2023-02-17T02:38:18.975Z,41.90
2023-02-17T02:40:51.528Z,39.58
2023-02-17T02:43:19.564Z,40.65
2023-02-17T02:45:48.357Z,37.90
2023-02-17T02:48:17.654Z,40.92
2023-02-17T02:50:58.123Z,40.28
2023-02-17T02:53:43.089Z,46.92
2023-02-17T02:56:16.487Z,39.70
2023-02-17T02:58:49.129Z,35.03
2023-02-17T03:01:28.254Z,32.15
2023-02-17T03:04:04.332Z,34.28
2023-02-17T03:06:37.891Z,30.15
2023-02-17T03:09:08.210Z,33.83
2023-02-17T03:11:36.383Z,31.67
2023-02-17T03:14:07.241Z,31.20
2023-02-17T03:16:37.360Z,36.47
2023-02-17T03:19:07.515Z,30.80
2023-02-17T03:21:39.760Z,36.35
2023-02-17T03:24:08.778Z,32.13
2023-02-17T03:26:37.073Z,31.00
2023-02-17T03:29:04.951Z,30.63
2023-02-17T03:31:33.427Z,28.02
2023-02-17T03:34:01.647Z,27.83
2023-02-17T03:36:30.990Z,32.45
2023-02-17T03:38:59.363Z,26.88
2023-02-17T03:41:28.128Z,27.88
2023-02-17T03:43:56.155Z,29.30
2023-02-17T03:46:23.932Z,31.83
2023-02-17T03:48:51.786Z,30.42
2023-02-17T03:51:23.087Z,29.58
2023-02-17T03:53:52.847Z,32.17
2023-02-17T03:56:20.962Z,31.77
2023-02-17T03:58:50.072Z,28.42
2023-02-17T04:01:18.148Z,31.67
2023-02-17T04:03:45.917Z,32.03
2023-02-17T04:06:13.845Z,28.13
2023-02-17T04:08:41.949Z,28.48
2023-02-17T04:11:11.965Z,28.98
2023-02-17T04:13:40.249Z,29.73
2023-02-17T04:16:09.603Z,32.70
2023-02-17T04:18:41.089Z,28.65
2023-02-17T04:21:09.456Z,26.70
2023-02-17T04:23:37.788Z,25.77
2023-02-17T04:26:07.018Z,25.27
2023-02-17T04:28:36.697Z,25.23
2023-02-17T04:31:04.890Z,24.08
2023-02-17T04:33:32.764Z,27.33
2023-02-17T04:36:00.824Z,27.33
2023-02-17T04:38:29.294Z,25.63
2023-02-17T04:40:58.510Z,26.67
2023-02-17T04:43:28.404Z,30.92
2023-02-17T04:45:58.170Z,27.13
2023-02-17T04:48:27.061Z,25.50
2023-02-17T04:50:55.367Z,24.13
2023-02-17T04:53:24.248Z,28.88
2023-02-17T04:55:54.395Z,26.85
2023-02-17T04:58:22.812Z,24.17
2023-02-17T05:00:51.624Z,28.02
2023-02-17T05:03:21.094Z,27.25
2023-02-17T05:05:49.971Z,27.50
2023-02-17T05:08:17.848Z,27.45
2023-02-17T05:10:46.229Z,27.63
2023-02-17T05:13:14.116Z,27.95
2023-02-17T05:15:44.161Z,29.52
2023-02-17T05:18:12.179Z,29.98
2023-02-17T05:20:42.051Z,28.23
2023-02-17T05:23:09.841Z,34.97
2023-02-17T05:25:37.640Z,26.80
2023-02-17T05:28:05.458Z,28.58
2023-02-17T05:30:33.519Z,30.13
2023-02-17T05:33:02.143Z,29.02
2023-02-17T05:35:29.932Z,29.63
2023-02-17T05:37:59.326Z,31.25
2023-02-17T05:40:27.169Z,28.85
2023-02-17T05:42:55.209Z,34.53
2023-02-17T05:45:23.253Z,33.47
2023-02-17T05:47:51.082Z,30.50
2023-02-17T05:50:19.193Z,35.33
2023-02-17T05:52:50.302Z,32.53
2023-02-17T05:55:19.616Z,35.65
2023-02-17T05:57:47.439Z,33.35
2023-02-17T06:00:16.697Z,32.53
2023-02-17T06:02:44.650Z,29.38
2023-02-17T06:05:13.194Z,28.23
2023-02-17T06:07:40.895Z,32.88
2023-02-17T06:10:10.268Z,25.80
2023-02-17T06:12:39.403Z,26.50
2023-02-17T06:15:08.180Z,24.90
2023-02-17T06:17:37.235Z,26.05
2023-02-17T06:20:08.184Z,23.70
2023-02-17T06:22:37.137Z,31.67
2023-02-17T06:25:05.501Z,29.45
2023-02-17T06:27:34.724Z,27.30
2023-02-17T06:30:04.331Z,32.00
2023-02-17T06:32:32.493Z,27.35
2023-02-17T06:35:00.476Z,30.20
2023-02-17T06:37:28.589Z,29.48
2023-02-17T06:39:56.576Z,29.60
2023-02-17T06:42:24.294Z,30.90
2023-02-17T06:44:53.212Z,33.70
2023-02-17T06:47:22.323Z,27.67
2023-02-17T06:49:50.072Z,28.75
2023-02-17T06:52:18.166Z,29.83
2023-02-17T06:54:47.540Z,29.08
2023-02-17T06:57:15.866Z,26.25
2023-02-17T06:59:44.033Z,28.08
2023-02-17T07:02:13.039Z,28.15
2023-02-17T07:04:43.040Z,28.48
2023-02-17T07:07:11.618Z,25.48
2023-02-17T07:09:40.211Z,27.65
2023-02-17T07:12:08.997Z,27.10
2023-02-17T07:14:37.406Z,29.88
2023-02-17T07:17:05.726Z,26.98
2023-02-17T07:19:34.034Z,26.30
2023-02-17T07:22:05.797Z,27.45
2023-02-17T07:24:34.049Z,23.55
2023-02-17T07:27:02.051Z,24.90
2023-02-17T07:29:30.347Z,24.48
2023-02-17T07:31:58.254Z,26.42
2023-02-17T07:34:26.797Z,22.60
2023-02-17T07:36:54.927Z,23.60
2023-02-17T07:39:24.151Z,22.83
2023-02-17T07:41:52.423Z,24.25
2023-02-17T07:44:25.519Z,25.55
2023-02-17T07:46:53.367Z,22.60
2023-02-17T07:49:21.322Z,23.75
2023-02-17T07:51:49.336Z,22.08
2023-02-17T07:54:17.403Z,21.63
2023-02-17T07:56:49.394Z,22.90
2023-02-17T07:59:17.263Z,22.42
2023-02-17T08:01:46.158Z,23.75
2023-02-17T08:04:14.083Z,21.70
2023-02-17T08:06:41.980Z,18.90
2023-02-17T08:09:29.162Z,23.02
2023-02-17T08:12:16.012Z,19.50
2023-02-17T08:14:43.800Z,20.65
2023-02-17T08:17:11.644Z,17.63
2023-02-17T08:19:48.004Z,20.15
2023-02-17T08:22:16.861Z,21.70
2023-02-17T08:24:44.647Z,19.15
2023-02-17T08:27:14.825Z,19.20
2023-02-17T08:29:43.163Z,18.67
2023-02-17T08:32:11.644Z,21.17
2023-02-17T08:34:40.673Z,20.02
2023-02-17T08:37:08.899Z,16.05
2023-02-17T08:39:39.482Z,18.25
2023-02-17T08:42:07.290Z,17.33
2023-02-17T08:44:37.898Z,16.98
2023-02-17T08:47:06.977Z,17.02
2023-02-17T08:49:35.080Z,17.33
2023-02-17T08:52:03.341Z,18.65
2023-02-17T08:54:32.808Z,15.15
2023-02-17T08:57:01.129Z,17.58
2023-02-17T08:59:29.166Z,16.45
2023-02-17T09:01:58.493Z,15.52
2023-02-17T09:04:26.956Z,16.38
2023-02-17T09:06:57.296Z,14.45
2023-02-17T09:09:27.902Z,14.82
2023-02-17T09:11:56.863Z,13.45
2023-02-17T09:14:26.519Z,12.95
2023-02-17T09:16:55.597Z,14.00
2023-02-17T09:19:25.497Z,12.70
2023-02-17T09:21:53.342Z,12.05
2023-02-17T09:24:21.295Z,10.43
2023-02-17T09:26:49.125Z,13.57
2023-02-17T09:29:16.945Z,10.98
2023-02-17T09:31:46.146Z,13.70
2023-02-17T09:34:14.221Z,10.05
2023-02-17T09:36:43.881Z,11.18
2023-02-17T09:39:14.214Z,10.98
2023-02-17T09:41:44.969Z,11.00
2023-02-17T09:44:18.796Z,10.98
2023-02-17T09:47:01.346Z,10.90
2023-02-17T09:49:34.020Z,11.50
2023-02-17T09:52:08.170Z,15.30
2023-02-17T09:57:05.373Z,13.43
2023-02-17T09:59:36.865Z,10.52
2023-02-17T10:02:08.596Z,10.45
2023-02-17T10:04:39.198Z,8.52
2023-02-17T10:07:11.260Z,10.35
2023-02-17T10:09:45.528Z,12.18
2023-02-17T10:12:18.672Z,10.05
2023-02-17T10:14:50.409Z,9.60
2023-02-17T10:17:22.505Z,9.30
2023-02-17T10:19:54.397Z,8.10
2023-02-17T10:22:25.105Z,10.20
2023-02-17T10:24:52.977Z,9.93
2023-02-17T10:27:38.507Z,11.32
2023-02-17T10:30:20.418Z,9.45
2023-02-17T10:32:55.676Z,12.48
2023-02-17T10:35:26.486Z,11.23
2023-02-17T10:38:00.049Z,10.10
2023-02-17T10:40:30.461Z,8.52
2023-02-17T10:42:59.954Z,11.20
2023-02-17T10:45:31.793Z,10.88
2023-02-17T10:48:03.787Z,9.95
2023-02-17T10:50:32.184Z,10.07
2023-02-17T10:53:01.711Z,11.35
2023-02-17T10:55:39.137Z,9.23
2023-02-17T10:58:12.179Z,13.63
2023-02-17T11:00:40.339Z,10.32
2023-02-17T11:03:08.168Z,10.65
2023-02-17T11:05:37.237Z,9.85
2023-02-17T11:08:08.935Z,10.20
2023-02-17T11:10:39.068Z,11.50
2023-02-17T11:13:31.406Z,11.65
2023-02-17T11:15:59.562Z,11.00
2023-02-17T11:18:29.887Z,8.55
2023-02-17T11:21:03.193Z,9.32
2023-02-17T11:23:35.660Z,12.37
2023-02-17T11:26:10.740Z,12.13
2023-02-17T11:28:38.744Z,11.38
2023-02-17T11:31:07.480Z,12.38
2023-02-17T11:33:37.104Z,15.02
2023-02-17T11:36:07.615Z,11.68
2023-02-17T11:38:44.798Z,12.50
2023-02-17T11:41:12.628Z,14.02
2023-02-17T11:43:40.854Z,11.73
2023-02-17T11:46:23.745Z,11.48
2023-02-17T11:49:12.494Z,18.63
2023-02-17T11:51:50.250Z,14.48
2023-02-17T11:54:23.659Z,16.25
2023-02-17T11:57:01.411Z,14.40
2023-02-17T11:59:38.156Z,13.90
2023-02-17T12:02:18.542Z,16.52
2023-02-17T12:05:06.739Z,17.13
2023-02-17T12:07:55.811Z,16.10
2023-02-17T12:10:51.524Z,15.38
2023-02-17T12:13:30.562Z,15.30
2023-02-17T12:16:09.941Z,15.60
2023-02-17T12:18:48.326Z,19.85
2023-02-17T12:21:21.607Z,15.93
2023-02-17T12:23:59.714Z,16.33
2023-02-17T12:26:36.784Z,18.95
2023-02-17T12:29:18.077Z,17.98
2023-02-17T12:31:57.839Z,15.80
2023-02-17T12:34:31.480Z,17.85
2023-02-17T12:37:00.520Z,14.15
2023-02-17T12:39:32.105Z,15.57
2023-02-17T12:42:04.040Z,14.80
2023-02-17T12:44:34.716Z,12.68
2023-02-17T12:47:06.345Z,15.45
2023-02-17T12:49:39.072Z,13.38
2023-02-17T12:52:09.970Z,14.05
2023-02-17T12:54:43.154Z,14.65
2023-02-17T12:57:16.763Z,18.67
2023-02-17T12:59:45.859Z,18.90
2023-02-17T13:02:15.110Z,12.30
2023-02-17T13:04:44.041Z,19.52
2023-02-17T13:07:24.542Z,17.40
2023-02-17T13:09:52.633Z,19.23
2023-02-17T13:12:35.883Z,22.95
2023-02-17T13:15:05.500Z,17.67
2023-02-17T13:17:38.299Z,18.90
2023-02-17T13:20:24.927Z,19.25
2023-02-17T13:23:05.460Z,15.05
2023-02-17T13:25:37.721Z,15.10
2023-02-17T13:28:20.428Z,18.50
2023-02-17T13:30:52.273Z,15.65
2023-02-17T13:33:31.296Z,14.95
2023-02-17T13:35:59.050Z,21.73
2023-02-17T13:38:29.897Z,11.65
2023-02-17T13:41:01.110Z,20.75
2023-02-17T13:43:31.908Z,16.30
2023-02-17T13:46:00.989Z,14.43
2023-02-17T13:48:32.146Z,14.65
2023-02-17T13:51:02.188Z,21.90
2023-02-17T13:53:37.261Z,17.55
2023-02-17T13:56:07.463Z,19.35
2023-02-17T13:58:41.224Z,19.38
2023-02-17T14:01:16.075Z,15.18
2023-02-17T14:03:47.490Z,17.42
2023-02-17T14:06:25.801Z,18.60
2023-02-17T14:08:54.174Z,15.23
2023-02-17T14:11:24.480Z,16.75
2023-02-17T14:13:55.602Z,28.67
2023-02-17T14:16:32.631Z,21.58
2023-02-17T14:19:04.590Z,19.70
2023-02-17T14:21:32.904Z,20.40
2023-02-17T14:24:01.129Z,19.63
2023-02-17T14:26:32.475Z,21.15
2023-02-17T14:29:02.939Z,15.90
2023-02-17T14:31:30.981Z,18.48
2023-02-17T14:34:01.085Z,25.48
2023-02-17T14:36:39.474Z,19.75
2023-02-17T14:39:08.779Z,16.73
2023-02-17T14:41:36.726Z,18.88
2023-02-17T14:44:06.588Z,14.27
2023-02-17T14:46:35.092Z,17.30
2023-02-17T14:49:03.005Z,16.92
2023-02-17T14:51:35.893Z,20.00
2023-02-17T14:54:05.091Z,18.75
2023-02-17T14:56:34.952Z,17.35
2023-02-17T14:59:04.033Z,22.63
2023-02-17T15:01:35.678Z,22.45
2023-02-17T15:04:03.544Z,17.42
2023-02-17T15:06:41.077Z,17.42
2023-02-17T15:09:12.801Z,18.38
2023-02-17T15:11:42.456Z,15.82
2023-02-17T15:14:17.744Z,16.30
2023-02-17T15:16:47.691Z,23.73
2023-02-17T15:19:17.955Z,18.85
2023-02-17T15:21:47.623Z,22.02
2023-02-17T15:24:17.060Z,19.50
2023-02-17T15:26:44.986Z,18.10
2023-02-17T15:29:17.369Z,24.50
2023-02-17T15:31:47.137Z,25.73
2023-02-17T15:34:16.937Z,21.08
2023-02-17T15:36:44.911Z,22.17
2023-02-17T15:39:13.436Z,17.77
2023-02-17T15:41:41.565Z,28.92
2023-02-17T15:44:13.946Z,21.80
2023-02-17T15:46:44.355Z,17.73
2023-02-17T15:49:14.727Z,18.92
2023-02-17T15:51:42.592Z,14.45
2023-02-17T15:54:10.471Z,15.55
2023-02-17T15:56:43.295Z,18.23
2023-02-17T15:59:15.910Z,28.00
2023-02-17T16:01:46.300Z,23.97
2023-02-17T16:04:16.388Z,21.38
2023-02-17T16:06:44.321Z,19.73
2023-02-17T16:09:12.481Z,15.70
2023-02-17T16:11:47.569Z,23.45
2023-02-17T16:14:24.060Z,16.33
2023-02-17T16:16:52.037Z,24.27
2023-02-17T16:19:22.023Z,23.33
2023-02-17T16:21:50.194Z,21.23
2023-02-17T16:24:20.225Z,18.30
2023-02-17T16:26:49.724Z,22.95
2023-02-17T16:29:19.613Z,18.27
2023-02-17T16:31:48.053Z,21.42
2023-02-17T16:34:18.056Z,17.55
2023-02-17T16:36:47.596Z,19.17
2023-02-17T16:39:16.628Z,24.92
2023-02-17T16:41:48.702Z,21.98
2023-02-17T16:44:17.469Z,24.85
2023-02-17T16:46:48.291Z,20.25
2023-02-17T16:49:22.932Z,20.58
2023-02-17T16:51:53.562Z,21.33
2023-02-17T16:54:22.433Z,22.42
2023-02-17T16:56:51.953Z,20.27
2023-02-17T16:59:22.337Z,21.45
2023-02-17T17:01:53.195Z,19.80
2023-02-17T17:04:22.933Z,24.05
2023-02-17T17:06:53.224Z,15.70
2023-02-17T17:09:23.585Z,27.77
2023-02-17T17:11:52.025Z,25.23
2023-02-17T17:14:21.659Z,22.90
2023-02-17T17:16:52.836Z,22.52
2023-02-17T17:19:23.504Z,17.02
2023-02-17T17:21:53.003Z,23.48
2023-02-17T17:24:21.794Z,21.10
2023-02-17T17:26:51.624Z,22.65
2023-02-17T17:29:21.193Z,19.90
2023-02-17T17:31:49.337Z,23.10
2023-02-17T17:34:17.304Z,21.95
2023-02-17T17:36:47.907Z,23.85
2023-02-17T17:39:18.837Z,20.98
2023-02-17T17:41:46.706Z,31.20
2023-02-17T17:44:15.123Z,27.42
2023-02-17T17:46:43.404Z,29.13
2023-02-17T17:49:13.546Z,30.40
2023-02-17T17:51:41.833Z,24.05
2023-02-17T17:54:09.989Z,34.55
2023-02-17T17:56:42.556Z,34.05
2023-02-17T17:59:11.024Z,26.20
2023-02-17T18:01:38.835Z,31.02
2023-02-17T18:04:09.521Z,23.25
2023-02-17T18:06:41.037Z,34.17
2023-02-17T18:09:13.306Z,27.60
2023-02-17T18:11:47.190Z,29.08
2023-02-17T18:14:15.802Z,30.85
2023-02-17T18:16:45.724Z,26.77
2023-02-17T18:19:13.716Z,24.00
2023-02-17T18:21:42.102Z,24.52
2023-02-17T18:24:10.048Z,31.25
2023-02-17T18:26:37.844Z,30.05
2023-02-17T18:29:07.205Z,28.88
2023-02-17T18:31:35.849Z,30.38
2023-02-17T18:34:03.967Z,25.75
2023-02-17T18:36:32.332Z,31.08
2023-02-17T18:39:00.630Z,28.63
2023-02-17T18:41:32.248Z,25.35
2023-02-17T18:44:02.220Z,36.42
2023-02-17T18:46:34.006Z,39.15
2023-02-17T18:49:02.284Z,35.83
2023-02-17T18:51:30.117Z,27.73
2023-02-17T18:53:59.591Z,31.35
2023-02-17T18:56:30.386Z,19.63
2023-02-17T18:58:58.896Z,27.70
2023-02-17T19:01:28.701Z,28.65
2023-02-17T19:03:58.831Z,28.65
2023-02-17T19:06:28.618Z,22.92
2023-02-17T19:08:56.915Z,28.48
2023-02-17T19:11:25.321Z,20.55
2023-02-17T19:13:54.098Z,27.65
2023-02-17T19:16:25.536Z,27.92
2023-02-17T19:18:53.799Z,31.23
2023-02-17T19:21:23.379Z,31.65
2023-02-17T19:23:51.779Z,30.88
2023-02-17T19:26:20.738Z,33.00
2023-02-17T19:28:48.738Z,26.92
2023-02-17T19:31:19.240Z,25.73
2023-02-17T19:33:47.810Z,31.13
2023-02-17T19:36:17.651Z,38.28
2023-02-17T19:38:49.917Z,32.20
2023-02-17T19:41:18.732Z,32.25
2023-02-17T19:43:46.633Z,38.42
2023-02-17T19:46:16.020Z,31.02
2023-02-17T19:48:43.757Z,35.47
2023-02-17T19:51:13.783Z,35.58
2023-02-17T19:53:42.999Z,28.63
2023-02-17T19:56:14.025Z,28.73
2023-02-17T19:58:42.694Z,40.05
2023-02-17T20:01:12.268Z,45.38
2023-02-17T20:03:40.623Z,47.95
2023-02-17T20:06:10.674Z,38.78
2023-02-17T20:08:39.923Z,35.78
2023-02-17T20:11:08.873Z,41.83
2023-02-17T20:13:45.571Z,42.10
2023-02-17T20:16:15.761Z,41.70
2023-02-17T20:18:45.624Z,45.42
2023-02-17T20:21:15.364Z,45.97
2023-02-17T20:23:43.424Z,38.70
2023-02-17T20:26:13.301Z,42.17
2023-02-17T20:28:42.869Z,44.15
2023-02-17T20:31:11.466Z,43.33
2023-02-17T20:33:39.985Z,37.90
2023-02-17T20:36:09.571Z,44.45
2023-02-17T20:38:38.380Z,45.45
2023-02-17T20:41:07.288Z,36.42
2023-02-17T20:43:37.849Z,39.97
2023-02-17T20:46:08.026Z,37.92
2023-02-17T20:48:35.929Z,39.28
2023-02-17T20:51:05.746Z,35.70
2023-02-17T20:53:33.794Z,37.95
2023-02-17T20:56:01.714Z,38.30
2023-02-17T20:58:29.799Z,47.80
2023-02-17T21:00:57.698Z,42.00
2023-02-17T21:03:27.039Z,49.90
2023-02-17T21:05:54.706Z,44.25
2023-02-17T21:08:22.824Z,45.33
2023-02-17T21:10:52.918Z,51.30
2023-02-17T21:13:22.770Z,47.47
2023-02-17T21:15:51.016Z,53.88
2023-02-17T21:18:18.865Z,46.10
2023-02-17T21:20:48.172Z,48.15
2023-02-17T21:23:16.008Z,46.80
2023-02-17T21:25:46.103Z,54.05
2023-02-17T21:28:16.635Z,44.80
2023-02-17T21:30:47.238Z,52.53
2023-02-17T21:33:15.102Z,58.20
2023-02-17T21:35:42.884Z,48.78
2023-02-17T21:38:15.552Z,55.13
2023-02-17T21:40:43.873Z,45.03
2023-02-17T21:43:30.361Z,50.25
2023-02-17T21:45:58.302Z,51.17
2023-02-17T21:48:26.080Z,53.63
2023-02-17T21:50:53.860Z,50.47
2023-02-17T21:53:23.148Z,56.63
2023-02-17T21:55:51.146Z,55.67
2023-02-17T21:58:19.069Z,53.00
2023-02-17T22:00:49.509Z,51.63
2023-02-17T22:03:18.323Z,55.45
2023-02-17T22:05:46.638Z,56.25
2023-02-17T22:08:14.672Z,55.53
2023-02-17T22:10:44.925Z,64.97
2023-02-17T22:13:12.875Z,47.83
2023-02-17T22:15:41.476Z,46.70
2023-02-17T22:18:09.385Z,50.33
2023-02-17T22:20:38.009Z,58.72
2023-02-17T22:23:05.848Z,49.33
2023-02-17T22:25:33.912Z,61.25
2023-02-17T22:28:03.015Z,57.55
2023-02-17T22:30:31.004Z,52.58
2023-02-17T22:32:59.096Z,59.22
2023-02-17T22:35:27.662Z,59.35
2023-02-17T22:37:57.625Z,58.63
2023-02-17T22:40:26.861Z,54.47
2023-02-17T22:42:54.985Z,49.45
2023-02-17T22:45:24.373Z,62.05
2023-02-17T22:47:54.856Z,57.70
2023-02-17T22:50:22.719Z,60.63
2023-02-17T22:52:50.625Z,64.75
2023-02-17T22:55:18.572Z,57.38
2023-02-17T22:57:47.391Z,64.07
2023-02-17T23:00:16.718Z,69.15
2023-02-17T23:02:46.320Z,68.13
2023-02-17T23:05:14.438Z,64.88
2023-02-17T23:07:42.301Z,61.65
2023-02-17T23:10:11.591Z,61.92
2023-02-17T23:12:39.486Z,59.10
2023-02-17T23:15:07.913Z,64.75
2023-02-17T23:17:58.368Z,56.10
2023-02-17T23:20:27.612Z,58.72
2023-02-17T23:22:58.302Z,50.28
2023-02-17T23:25:27.300Z,50.47
2023-02-17T23:27:55.720Z,61.03
2023-02-17T23:30:24.352Z,58.63
2023-02-17T23:32:52.215Z,71.55
2023-02-17T23:35:20.199Z,61.38
2023-02-17T23:37:50.829Z,59.65
2023-02-17T23:40:19.459Z,66.43
2023-02-17T23:42:47.455Z,72.72
2023-02-17T23:45:15.243Z,67.05
2023-02-17T23:47:43.215Z,63.97
2023-02-17T23:50:16.169Z,70.70
2023-02-17T23:52:45.047Z,66.15
2023-02-17T23:55:14.310Z,69.45
2023-02-17T23:57:42.220Z,83.40
